createdAt,value
2022-11-05T00:01:15.609Z,100195.59
2022-11-05T00:04:02.821Z,100200.94
2022-11-05T00:06:49.792Z,100195.81
2022-11-05T00:09:33.046Z,100218.63
2022-11-05T00:12:30.374Z,100198.50
2022-11-05T00:15:17.035Z,100217.75
2022-11-05T00:17:45.545Z,100215.09
2022-11-05T00:20:14.841Z,100214.06
2022-11-05T00:23:01.567Z,100220.06
2022-11-05T00:25:30.446Z,100216.56
2022-11-05T00:28:03.564Z,100225.31
2022-11-05T00:30:31.719Z,100221.06
2022-11-05T00:33:03.563Z,100226.03
2022-11-05T00:35:36.299Z,100230.56
2022-11-05T00:38:04.679Z,100230.56
2022-11-05T00:40:32.484Z,100227.84
2022-11-05T00:43:19.052Z,100228.13
2022-11-05T00:45:47.200Z,100236.72
2022-11-05T00:48:34.029Z,100226.41
2022-11-05T00:51:02.204Z,100233.25
2022-11-05T00:53:30.510Z,100222.88
2022-11-05T00:55:58.489Z,100244.56
2022-11-05T00:58:29.044Z,100221.00
2022-11-05T01:01:00.351Z,100246.25
2022-11-05T01:03:38.349Z,100242.81
2022-11-05T01:06:17.329Z,100234.91
2022-11-05T01:08:46.798Z,100241.13
2022-11-05T01:11:33.502Z,100237.50
2022-11-05T01:14:10.787Z,100246.38
2022-11-05T01:16:40.248Z,100229.81
2022-11-05T01:19:10.966Z,100241.34
2022-11-05T01:21:39.040Z,100244.03
2022-11-05T01:24:07.665Z,100259.53
2022-11-05T01:26:35.634Z,100264.00
2022-11-05T01:29:04.177Z,100255.22
2022-11-05T01:31:31.946Z,100257.91
2022-11-05T01:34:01.848Z,100266.59
2022-11-05T01:36:30.406Z,100272.22
2022-11-05T01:38:58.157Z,100273.84
2022-11-05T01:41:26.322Z,100279.09
2022-11-05T01:44:01.675Z,100286.22
2022-11-05T01:46:46.237Z,100280.22
2022-11-05T01:49:33.497Z,100278.47
2022-11-05T01:52:03.847Z,100281.09
2022-11-05T01:54:34.963Z,100286.25
2022-11-05T01:57:08.953Z,100277.59
2022-11-05T01:59:52.905Z,100285.41
2022-11-05T02:02:20.921Z,100299.59
2022-11-05T02:04:54.970Z,100294.16
2022-11-05T02:07:27.604Z,100293.44
2022-11-05T02:10:08.199Z,100305.78
2022-11-05T02:12:41.016Z,100288.38
2022-11-05T02:15:18.795Z,100296.19
2022-11-05T02:18:16.240Z,100307.53
2022-11-05T02:21:08.469Z,100301.31
2022-11-05T02:24:29.355Z,100304.28
2022-11-05T02:27:49.948Z,100311.38
2022-11-05T02:30:35.359Z,100309.63
2022-11-05T02:33:21.654Z,100320.34
2022-11-05T02:36:38.869Z,100320.38
2022-11-05T02:39:27.461Z,100324.88
2022-11-05T02:42:17.641Z,100322.28
2022-11-05T02:45:10.949Z,100319.91
2022-11-05T02:47:52.014Z,100325.09
2022-11-05T02:50:50.590Z,100327.84
2022-11-05T02:53:43.752Z,100322.50
2022-11-05T02:56:33.874Z,100320.78
2022-11-05T02:59:03.535Z,100319.28
2022-11-05T03:01:31.413Z,100328.84
2022-11-05T03:04:02.083Z,100315.88
2022-11-05T03:07:19.676Z,100336.81
2022-11-05T03:10:46.378Z,100332.56
2022-11-05T03:13:28.962Z,100315.06
2022-11-05T03:16:14.559Z,100340.50
2022-11-05T03:18:49.253Z,100340.66
2022-11-05T03:21:39.761Z,100350.25
2022-11-05T03:24:17.496Z,100355.75
2022-11-05T03:26:57.123Z,100354.03
2022-11-05T03:29:34.997Z,100354.03
2022-11-05T03:32:08.392Z,100339.44
2022-11-05T03:34:45.986Z,100351.72
2022-11-05T03:37:19.133Z,100347.63
2022-11-05T03:39:56.601Z,100357.34
2022-11-05T03:42:29.982Z,100362.75
2022-11-05T03:45:02.398Z,100368.84
2022-11-05T03:47:39.842Z,100369.03
2022-11-05T03:50:19.645Z,100380.59
2022-11-05T03:53:22.439Z,100378.31
2022-11-05T03:56:10.596Z,100391.66
2022-11-05T03:58:44.100Z,100392.66
2022-11-05T04:01:12.626Z,100387.47
2022-11-05T04:03:40.940Z,100390.84
2022-11-05T04:06:29.184Z,100376.25
2022-11-05T04:09:16.851Z,100392.94
2022-11-05T04:12:04.054Z,100403.34
2022-11-05T04:14:33.698Z,100406.66
2022-11-05T04:17:09.371Z,100403.88
2022-11-05T04:20:02.796Z,100405.50
2022-11-05T04:22:52.867Z,100405.47
2022-11-05T04:25:23.013Z,100415.28
2022-11-05T04:27:51.688Z,100412.63
2022-11-05T04:30:22.752Z,100416.94
2022-11-05T04:33:07.949Z,100416.16
2022-11-05T04:35:46.605Z,100425.91
2022-11-05T04:38:18.632Z,100428.66
2022-11-05T04:40:48.131Z,100414.56
2022-11-05T04:43:19.348Z,100414.84
2022-11-05T04:45:47.487Z,100424.16
2022-11-05T04:48:15.412Z,100414.25
2022-11-05T04:50:43.442Z,100427.09
2022-11-05T04:53:11.504Z,100429.00
2022-11-05T04:55:41.012Z,100432.69
2022-11-05T04:58:09.911Z,100430.94
2022-11-05T05:00:37.953Z,100426.75
2022-11-05T05:03:06.287Z,100438.03
2022-11-05T05:05:34.457Z,100430.28
2022-11-05T05:08:04.566Z,100438.09
2022-11-05T05:10:33.353Z,100435.63
2022-11-05T05:13:01.615Z,100415.72
2022-11-05T05:15:29.754Z,100442.09
2022-11-05T05:17:58.773Z,100450.19
2022-11-05T05:21:02.603Z,100451.13
2022-11-05T05:23:30.512Z,100438.66
2022-11-05T05:26:01.384Z,100464.69
2022-11-05T05:28:29.975Z,100465.50
2022-11-05T05:31:00.871Z,100475.69
2022-11-05T05:33:29.307Z,100464.44
2022-11-05T05:35:58.972Z,100486.97
2022-11-05T05:38:26.686Z,100497.53
2022-11-05T05:41:00.015Z,100487.59
2022-11-05T05:43:33.378Z,100492.09
2022-11-05T05:46:10.365Z,100489.59
2022-11-05T05:48:38.794Z,100502.88
2022-11-05T05:51:12.640Z,100500.94
2022-11-05T05:53:41.056Z,100498.41
2022-11-05T05:56:09.698Z,100502.22
2022-11-05T05:58:39.812Z,100511.91
2022-11-05T06:01:18.372Z,100524.16
2022-11-05T06:03:49.213Z,100516.31
2022-11-05T06:06:21.545Z,100522.44
2022-11-05T06:08:49.442Z,100519.19
2022-11-05T06:11:17.950Z,100533.13
2022-11-05T06:13:47.097Z,100526.16
2022-11-05T06:16:15.382Z,100544.81
2022-11-05T06:18:43.455Z,100530.81
2022-11-05T06:21:15.261Z,100541.28
2022-11-05T06:23:45.713Z,100544.00
2022-11-05T06:26:18.005Z,100551.44
2022-11-05T06:28:47.167Z,100560.91
2022-11-05T06:31:16.647Z,100560.09
2022-11-05T06:33:44.735Z,100567.94
2022-11-05T06:36:17.548Z,100581.97
2022-11-05T06:38:46.533Z,100578.53
2022-11-05T06:41:14.571Z,100579.38
2022-11-05T06:43:42.657Z,100565.53
2022-11-05T06:46:11.879Z,100591.03
2022-11-05T06:48:40.419Z,100592.97
2022-11-05T06:51:10.174Z,100601.84
2022-11-05T06:53:38.668Z,100603.72
2022-11-05T06:56:07.809Z,100609.75
2022-11-05T06:58:35.950Z,100599.16
2022-11-05T07:01:10.678Z,100607.13
2022-11-05T07:03:39.272Z,100617.81
2022-11-05T07:06:07.846Z,100598.63
2022-11-05T07:08:38.030Z,100627.47
2022-11-05T07:11:06.575Z,100614.47
2022-11-05T07:13:34.852Z,100632.91
2022-11-05T07:16:02.633Z,100633.66
2022-11-05T07:18:30.750Z,100654.97
2022-11-05T07:21:00.715Z,100652.22
2022-11-05T07:23:29.481Z,100644.59
2022-11-05T07:26:00.352Z,100659.31
2022-11-05T07:28:28.425Z,100649.81
2022-11-05T07:30:58.880Z,100665.38
2022-11-05T07:33:26.862Z,100674.19
2022-11-05T07:35:57.223Z,100667.03
2022-11-05T07:38:25.454Z,100645.03
2022-11-05T07:40:54.006Z,100666.09
2022-11-05T07:43:21.995Z,100674.75
2022-11-05T07:45:50.031Z,100687.25
2022-11-05T07:48:18.104Z,100677.41
2022-11-05T07:50:46.479Z,100693.06
2022-11-05T07:53:16.777Z,100686.03
2022-11-05T07:55:46.013Z,100685.84
2022-11-05T07:58:14.485Z,100690.31
2022-11-05T08:00:42.540Z,100680.56
2022-11-05T08:03:17.189Z,100687.44
2022-11-05T08:05:47.975Z,100698.63
2022-11-05T08:08:22.237Z,100705.69
2022-11-05T08:10:51.554Z,100705.78
2022-11-05T08:13:19.687Z,100699.41
2022-11-05T08:15:47.941Z,100712.50
2022-11-05T08:18:18.197Z,100714.28
2022-11-05T08:20:47.505Z,100720.34
2022-11-05T08:23:16.314Z,100719.34
2022-11-05T08:25:44.215Z,100713.34
2022-11-05T08:28:14.741Z,100728.25
2022-11-05T08:30:50.104Z,100732.53
2022-11-05T08:33:19.221Z,100734.34
2022-11-05T08:35:48.673Z,100732.44
2022-11-05T08:38:19.175Z,100716.00
2022-11-05T08:40:56.255Z,100739.69
2022-11-05T08:43:24.813Z,100730.13
2022-11-05T08:45:53.428Z,100745.81
2022-11-05T08:48:21.538Z,100748.50
2022-11-05T08:50:50.038Z,100740.41
2022-11-05T08:53:18.710Z,100753.38
2022-11-05T08:55:50.222Z,100752.44
2022-11-05T08:58:20.199Z,100738.53
2022-11-05T09:00:51.639Z,100735.59
2022-11-05T09:03:22.236Z,100751.31
2022-11-05T09:05:50.271Z,100744.88
2022-11-05T09:08:37.993Z,100750.78
2022-11-05T09:11:13.185Z,100746.91
2022-11-05T09:13:41.016Z,100730.88
2022-11-05T09:16:23.901Z,100742.69
2022-11-05T09:18:52.889Z,100749.69
2022-11-05T09:21:22.943Z,100750.28
2022-11-05T09:23:53.243Z,100756.59
2022-11-05T09:26:21.612Z,100756.66
2022-11-05T09:28:50.836Z,100748.84
2022-11-05T09:31:19.674Z,100761.06
2022-11-05T09:33:47.736Z,100764.69
2022-11-05T09:36:15.997Z,100759.47
2022-11-05T09:38:45.996Z,100753.56
2022-11-05T09:41:39.811Z,100771.78
2022-11-05T09:44:24.938Z,100777.22
2022-11-05T09:47:07.657Z,100786.13
2022-11-05T09:49:42.495Z,100774.59
2022-11-05T09:52:27.970Z,100786.69
2022-11-05T09:54:58.240Z,100783.03
2022-11-05T09:57:30.361Z,100774.25
2022-11-05T10:00:02.272Z,100795.19
2022-11-05T10:03:07.590Z,100784.41
2022-11-05T10:05:37.770Z,100791.63
2022-11-05T10:08:24.844Z,100797.56
2022-11-05T10:11:06.890Z,100800.19
2022-11-05T10:13:42.297Z,100796.72
2022-11-05T10:16:31.579Z,100803.53
2022-11-05T10:19:12.932Z,100801.84
2022-11-05T10:24:29.096Z,100798.59
2022-11-05T10:26:57.691Z,100796.91
2022-11-05T10:29:34.557Z,100810.97
2022-11-05T10:32:05.875Z,100806.84
2022-11-05T10:34:37.991Z,100811.66
2022-11-05T10:37:06.287Z,100797.75
2022-11-05T10:39:34.766Z,100803.63
2022-11-05T10:42:43.895Z,100825.28
2022-11-05T10:45:47.135Z,100815.44
2022-11-05T10:48:50.890Z,100825.00
2022-11-05T10:51:19.709Z,100825.91
2022-11-05T10:54:21.147Z,100824.81
2022-11-05T10:56:50.202Z,100820.25
2022-11-05T10:59:29.385Z,100821.44
2022-11-05T11:02:23.346Z,100818.59
2022-11-05T11:04:58.334Z,100805.38
2022-11-05T11:07:27.343Z,100815.72
2022-11-05T11:09:55.649Z,100817.63
2022-11-05T11:12:29.007Z,100818.25
2022-11-05T11:15:21.572Z,100812.91
2022-11-05T11:17:49.479Z,100810.34
2022-11-05T11:20:34.219Z,100797.03
2022-11-05T11:23:16.636Z,100806.50
2022-11-05T11:26:01.389Z,100816.44
2022-11-05T11:28:51.867Z,100812.81
2022-11-05T11:31:27.895Z,100808.53
2022-11-05T11:34:14.726Z,100816.25
2022-11-05T11:36:51.698Z,100809.16
2022-11-05T11:39:26.652Z,100808.19
2022-11-05T11:41:57.852Z,100803.69
2022-11-05T11:44:41.252Z,100805.88
2022-11-05T11:47:21.996Z,100807.47
2022-11-05T11:50:00.209Z,100818.19
2022-11-05T11:52:35.618Z,100811.22
2022-11-05T11:55:13.290Z,100804.06
2022-11-05T11:57:51.891Z,100811.31
2022-11-05T12:00:23.942Z,100807.81
2022-11-05T12:03:30.836Z,100806.66
2022-11-05T12:06:38.295Z,100812.81
2022-11-05T12:09:23.725Z,100810.72
2022-11-05T12:12:10.423Z,100803.47
2022-11-05T12:14:53.760Z,100810.16
2022-11-05T12:17:29.785Z,100813.50
2022-11-05T12:20:25.047Z,100808.78
2022-11-05T12:23:57.400Z,100807.97
2022-11-05T12:27:19.284Z,100804.03
2022-11-05T12:30:07.515Z,100819.09
2022-11-05T12:33:17.101Z,100804.81
2022-11-05T12:36:03.272Z,100804.81
2022-11-05T12:39:05.457Z,100806.72
2022-11-05T12:42:23.167Z,100799.22
2022-11-05T12:45:21.583Z,100804.50
2022-11-05T12:48:37.096Z,100794.41
2022-11-05T12:51:29.567Z,100796.44
2022-11-05T12:54:12.459Z,100794.94
2022-11-05T12:56:59.042Z,100788.91
2022-11-05T12:59:44.166Z,100789.69
2022-11-05T13:02:22.199Z,100795.16
2022-11-05T13:05:21.741Z,100799.72
2022-11-05T13:08:07.760Z,100807.03
2022-11-05T13:11:05.137Z,100800.84
2022-11-05T13:13:58.781Z,100805.13
2022-11-05T13:16:37.466Z,100809.50
2022-11-05T13:19:16.136Z,100802.88
2022-11-05T13:21:50.362Z,100789.78
2022-11-05T13:24:25.772Z,100808.75
2022-11-05T13:27:19.915Z,100808.66
2022-11-05T13:29:59.741Z,100813.75
2022-11-05T13:32:45.574Z,100801.25
2022-11-05T13:35:26.202Z,100810.38
2022-11-05T13:38:22.500Z,100805.50
2022-11-05T13:41:12.329Z,100825.38
2022-11-05T13:44:15.880Z,100816.59
2022-11-05T13:46:52.663Z,100815.94
2022-11-05T13:49:39.052Z,100814.13
2022-11-05T13:52:30.123Z,100826.97
2022-11-05T13:55:38.514Z,100829.25
2022-11-05T13:58:15.312Z,100830.41
2022-11-05T14:01:38.805Z,100826.94
2022-11-05T14:04:14.408Z,100832.78
2022-11-05T14:06:42.914Z,100824.09
2022-11-05T14:09:16.702Z,100839.22
2022-11-05T14:11:52.826Z,100830.38
2022-11-05T14:14:29.539Z,100833.78
2022-11-05T14:17:27.021Z,100823.16
2022-11-05T14:20:04.858Z,100837.41
2022-11-05T14:22:32.671Z,100830.44
2022-11-05T14:25:02.988Z,100837.75
2022-11-05T14:27:37.033Z,100834.56
2022-11-05T14:30:44.556Z,100838.19
2022-11-05T14:33:33.444Z,100836.50
2022-11-05T14:36:30.618Z,100836.50
2022-11-05T14:39:27.754Z,100841.78
2022-11-05T14:42:15.503Z,100838.38
2022-11-05T14:45:17.800Z,100828.53
2022-11-05T14:48:00.884Z,100840.25
2022-11-05T14:50:40.968Z,100829.50
2022-11-05T14:53:38.492Z,100845.59
2022-11-05T14:56:17.935Z,100848.34
2022-11-05T14:58:47.049Z,100840.59
2022-11-05T15:01:15.542Z,100854.78
2022-11-05T15:04:00.110Z,100837.09
2022-11-05T15:06:37.137Z,100831.16
2022-11-05T15:09:35.293Z,100847.97
2022-11-05T15:12:52.995Z,100852.63
2022-11-05T15:15:49.392Z,100850.38
2022-11-05T15:18:46.430Z,100848.53
2022-11-05T15:21:18.100Z,100849.50
2022-11-05T15:23:47.782Z,100840.72
2022-11-05T15:26:39.925Z,100849.91
2022-11-05T15:29:24.812Z,100848.84
2022-11-05T15:31:53.699Z,100849.00
2022-11-05T15:34:36.174Z,100845.28
2022-11-05T15:37:13.352Z,100866.69
2022-11-05T15:39:46.793Z,100865.91
2022-11-05T15:42:29.047Z,100858.75
2022-11-05T15:44:59.527Z,100858.06
2022-11-05T15:47:34.794Z,100859.13
2022-11-05T15:50:14.780Z,100855.91
2022-11-05T15:52:54.581Z,100858.56
2022-11-05T15:55:27.296Z,100851.06
2022-11-05T15:58:04.876Z,100856.16
2022-11-05T16:00:36.710Z,100862.53
2022-11-05T16:03:15.394Z,100855.38
2022-11-05T16:05:47.648Z,100854.53
2022-11-05T16:08:27.762Z,100850.22
2022-11-05T16:11:24.383Z,100847.72
2022-11-05T16:13:55.118Z,100848.97
2022-11-05T16:16:41.391Z,100851.56
2022-11-05T16:19:40.139Z,100868.69
2022-11-05T16:22:09.215Z,100880.63
2022-11-05T16:24:37.620Z,100857.78
2022-11-05T16:27:06.787Z,100856.06
2022-11-05T16:29:41.480Z,100870.22
2022-11-05T16:32:30.690Z,100872.03
2022-11-05T16:35:05.059Z,100867.78
2022-11-05T16:37:47.752Z,100856.53
2022-11-05T16:40:24.251Z,100863.63
2022-11-05T16:42:54.389Z,100869.03
2022-11-05T16:45:25.360Z,100871.75
2022-11-05T16:47:54.039Z,100859.69
2022-11-05T16:50:27.178Z,100882.69
2022-11-05T16:52:55.100Z,100866.31
2022-11-05T16:55:24.302Z,100878.78
2022-11-05T16:57:55.474Z,100874.41
2022-11-05T17:00:24.718Z,100886.97
2022-11-05T17:02:53.625Z,100892.19
2022-11-05T17:05:31.283Z,100869.22
2022-11-05T17:08:01.226Z,100882.59
2022-11-05T17:10:30.232Z,100882.50
2022-11-05T17:12:58.416Z,100896.66
2022-11-05T17:15:32.052Z,100895.84
2022-11-05T17:18:02.871Z,100904.91
2022-11-05T17:20:40.867Z,100901.38
2022-11-05T17:23:12.780Z,100898.78
2022-11-05T17:25:43.363Z,100898.09
2022-11-05T17:28:12.957Z,100893.75
2022-11-05T17:30:42.256Z,100912.72
2022-11-05T17:33:15.326Z,100905.16
2022-11-05T17:35:44.071Z,100924.25
2022-11-05T17:38:13.025Z,100919.22
2022-11-05T17:40:41.666Z,100932.94
2022-11-05T17:43:10.561Z,100931.41
2022-11-05T17:46:11.287Z,100926.50
2022-11-05T17:48:40.179Z,100930.97
2022-11-05T17:51:15.827Z,100921.34
2022-11-05T17:53:44.944Z,100941.59
2022-11-05T17:56:24.550Z,100924.13
2022-11-05T17:58:55.748Z,100938.91
2022-11-05T18:01:30.577Z,100944.19
2022-11-05T18:04:05.491Z,100941.72
2022-11-05T18:06:38.702Z,100947.28
2022-11-05T18:09:09.691Z,100950.09
2022-11-05T18:11:38.709Z,100955.56
2022-11-05T18:14:08.675Z,100955.56
2022-11-05T18:16:37.530Z,100943.22
2022-11-05T18:19:06.436Z,100950.22
2022-11-05T18:21:35.243Z,100953.97
2022-11-05T18:24:06.393Z,100953.09
2022-11-05T18:26:36.154Z,100961.09
2022-11-05T18:29:06.568Z,100954.03
2022-11-05T18:31:34.691Z,100940.84
2022-11-05T18:34:03.455Z,100950.53
2022-11-05T18:36:32.960Z,100961.22
2022-11-05T18:39:04.576Z,100960.38
2022-11-05T18:41:36.039Z,100941.09
2022-11-05T18:44:04.780Z,100947.91
2022-11-05T18:46:56.929Z,100947.16
2022-11-05T18:49:22.468Z,100932.91
2022-11-05T18:51:50.710Z,100924.91
2022-11-05T18:54:18.929Z,100937.94
2022-11-05T18:56:47.358Z,100953.88
2022-11-05T19:02:09.636Z,100936.22
2022-11-05T19:04:39.872Z,100933.63
2022-11-05T19:07:10.048Z,100942.50
2022-11-05T19:09:39.885Z,100939.88
2022-11-05T19:12:08.519Z,100944.31
2022-11-05T19:14:36.816Z,100943.56
2022-11-05T19:17:05.325Z,100947.16
2022-11-05T19:19:34.368Z,100937.72
2022-11-05T19:22:02.510Z,100931.09
2022-11-05T19:24:31.984Z,100930.88
2022-11-05T19:27:00.078Z,100940.69
2022-11-05T19:29:28.547Z,100939.72
2022-11-05T19:31:57.225Z,100950.53
2022-11-05T19:34:29.192Z,100941.75
2022-11-05T19:36:57.128Z,100951.63
2022-11-05T19:39:26.284Z,100955.13
2022-11-05T19:41:57.711Z,100947.22
2022-11-05T19:44:32.211Z,100945.41
2022-11-05T19:47:00.091Z,100950.00
2022-11-05T19:49:28.656Z,100956.22
2022-11-05T19:51:56.629Z,100955.53
2022-11-05T19:54:24.414Z,100961.88
2022-11-05T19:56:52.706Z,100960.19
2022-11-05T19:59:21.362Z,100968.22
2022-11-05T20:01:49.758Z,100957.88
2022-11-05T20:04:18.333Z,100971.97
2022-11-05T20:06:47.161Z,100978.25
2022-11-05T20:09:23.723Z,100965.84
2022-11-05T20:11:54.951Z,100958.84
2022-11-05T20:14:25.313Z,100962.44
2022-11-05T20:16:54.258Z,100965.91
2022-11-05T20:19:23.775Z,100960.50
2022-11-05T20:21:52.146Z,100951.81
2022-11-05T20:24:25.444Z,100962.28
2022-11-05T20:26:59.280Z,100962.31
2022-11-05T20:29:34.970Z,100955.47
2022-11-05T20:32:05.081Z,100954.72
2022-11-05T20:34:34.333Z,100956.63
2022-11-05T20:37:05.547Z,100942.78
2022-11-05T20:39:33.846Z,100952.31
2022-11-05T20:42:03.107Z,100954.22
2022-11-05T20:44:31.701Z,100958.63
2022-11-05T20:47:00.663Z,100951.75
2022-11-05T20:49:28.752Z,100958.69
2022-11-05T20:51:58.269Z,100963.25
2022-11-05T20:54:26.616Z,100953.63
2022-11-05T20:56:55.934Z,100959.19
2022-11-05T20:59:24.264Z,100964.53
2022-11-05T21:01:53.236Z,100963.78
2022-11-05T21:04:21.539Z,100939.31
2022-11-05T21:06:49.739Z,100941.88
2022-11-05T21:09:20.981Z,100952.38
2022-11-05T21:12:07.899Z,100951.63
2022-11-05T21:14:40.271Z,100956.16
2022-11-05T21:17:11.544Z,100954.59
2022-11-05T21:19:39.891Z,100954.78
2022-11-05T21:22:08.137Z,100954.03
2022-11-05T21:24:36.815Z,100955.00
2022-11-05T21:27:05.134Z,100932.38
2022-11-05T21:29:34.546Z,100949.94
2022-11-05T21:32:02.695Z,100942.16
2022-11-05T21:34:30.823Z,100947.13
2022-11-05T21:37:00.259Z,100940.19
2022-11-05T21:39:28.994Z,100941.81
2022-11-05T21:41:57.453Z,100926.06
2022-11-05T21:44:25.391Z,100938.34
2022-11-05T21:46:57.961Z,100942.63
2022-11-05T21:49:28.385Z,100954.00
2022-11-05T21:52:15.830Z,100962.00
2022-11-05T21:55:03.045Z,100952.44
2022-11-05T21:57:53.366Z,100951.69
2022-11-05T22:00:21.464Z,100954.41
2022-11-05T22:02:49.555Z,100931.50
2022-11-05T22:05:18.420Z,100939.44
2022-11-05T22:07:46.592Z,100938.34
2022-11-05T22:10:16.483Z,100945.38
2022-11-05T22:12:45.472Z,100940.09
2022-11-05T22:15:13.973Z,100944.53
2022-11-05T22:17:47.184Z,100936.59
2022-11-05T22:20:16.981Z,100931.34
2022-11-05T22:22:45.436Z,100936.66
2022-11-05T22:25:21.381Z,100928.78
2022-11-05T22:27:49.442Z,100943.88
2022-11-05T22:30:17.994Z,100946.53
2022-11-05T22:32:46.620Z,100934.44
2022-11-05T22:35:15.654Z,100946.88
2022-11-05T22:37:43.771Z,100941.72
2022-11-05T22:40:12.284Z,100941.66
2022-11-05T22:42:40.308Z,100940.75
2022-11-05T22:45:10.441Z,100933.69
2022-11-05T22:47:40.904Z,100916.22
2022-11-05T22:50:09.516Z,100926.63
2022-11-05T22:52:37.727Z,100913.56
2022-11-05T22:55:06.553Z,100919.50
2022-11-05T22:57:34.578Z,100926.53
2022-11-05T23:00:02.615Z,100922.28
2022-11-05T23:02:32.858Z,100923.41
2022-11-05T23:05:01.976Z,100930.41
2022-11-05T23:07:50.101Z,100925.97
2022-11-05T23:10:37.588Z,100924.28
2022-11-05T23:13:08.044Z,100924.41
2022-11-05T23:15:54.886Z,100919.03
2022-11-05T23:18:42.163Z,100926.28
2022-11-05T23:21:29.138Z,100928.13
2022-11-05T23:24:04.319Z,100892.16
2022-11-05T23:26:51.929Z,100900.78
2022-11-05T23:29:26.205Z,100905.19
2022-11-05T23:32:12.918Z,100909.72
2022-11-05T23:34:41.116Z,100911.75
2022-11-05T23:37:28.031Z,100890.78
2022-11-05T23:39:56.370Z,100900.34
2022-11-05T23:42:43.040Z,100904.69
2022-11-05T23:45:30.548Z,100905.66
2022-11-05T23:48:17.156Z,100895.22
2022-11-05T23:51:11.096Z,100907.50
2022-11-05T23:53:41.822Z,100908.31
2022-11-05T23:56:15.601Z,100906.53
2022-11-05T23:58:43.581Z,100892.47
